sensor_id;sensor_type;location;lat;lon;timestamp;P1;durP1;ratioP1;P2;durP2;ratioP2
22606;SDS011;11470;20.968;105.834;2023-09-07T12:09:38;60.53;;;44.05;;
22606;SDS011;11470;20.968;105.834;2023-09-07T12:14:43;49.95;;;35.33;;
22606;SDS011;11470;20.968;105.834;2023-09-07T12:19:49;58.17;;;35.10;;
22606;SDS011;11470;20.968;105.834;2023-09-07T12:24:55;72.60;;;53.13;;
22606;SDS011;11470;20.968;105.834;2023-09-07T12:30:15;60.33;;;46.35;;
22606;SDS011;11470;20.968;105.834;2023-09-07T12:35:22;62.70;;;41.50;;
22606;SDS011;11470;20.968;105.834;2023-09-07T12:40:27;67.70;;;45.08;;
22606;SDS011;11470;20.968;105.834;2023-09-07T12:45:33;64.15;;;45.78;;
22606;SDS011;11470;20.968;105.834;2023-09-07T12:50:38;64.57;;;25.83;;
22606;SDS011;11470;20.968;105.834;2023-09-07T12:55:46;50.90;;;30.92;;
22606;SDS011;11470;20.968;105.834;2023-09-07T13:00:51;73.45;;;45.13;;
22606;SDS011;11470;20.968;105.834;2023-09-07T13:05:56;75.20;;;51.95;;
22606;SDS011;11470;20.968;105.834;2023-09-07T13:11:03;76.75;;;46.30;;
22606;SDS011;11470;20.968;105.834;2023-09-07T13:16:09;60.83;;;31.20;;
22606;SDS011;11470;20.968;105.834;2023-09-07T13:21:23;54.35;;;30.17;;
22606;SDS011;11470;20.968;105.834;2023-09-07T13:32:29;76.60;;;46.45;;
22606;SDS011;11470;20.968;105.834;2023-09-07T13:37:36;69.28;;;45.22;;
22606;SDS011;11470;20.968;105.834;2023-09-07T13:42:41;72.97;;;48.83;;
22606;SDS011;11470;20.968;105.834;2023-09-07T13:47:46;68.78;;;50.53;;
22606;SDS011;11470;20.968;105.834;2023-09-07T13:52:51;73.70;;;52.08;;
22606;SDS011;11470;20.968;105.834;2023-09-07T13:57:57;67.63;;;52.33;;
22606;SDS011;11470;20.968;105.834;2023-09-07T14:03:02;70.07;;;45.50;;
22606;SDS011;11470;20.968;105.834;2023-09-07T14:08:07;73.25;;;50.55;;
22606;SDS011;11470;20.968;105.834;2023-09-07T14:13:13;72.57;;;53.40;;
22606;SDS011;11470;20.968;105.834;2023-09-07T14:18:18;66.43;;;44.08;;
22606;SDS011;11470;20.968;105.834;2023-09-07T14:23:24;61.50;;;40.57;;
22606;SDS011;11470;20.968;105.834;2023-09-07T14:28:32;68.95;;;44.35;;
22606;SDS011;11470;20.968;105.834;2023-09-07T14:33:39;70.40;;;48.28;;
22606;SDS011;11470;20.968;105.834;2023-09-07T14:38:45;55.58;;;39.17;;
22606;SDS011;11470;20.968;105.834;2023-09-07T14:43:50;71.53;;;47.40;;
22606;SDS011;11470;20.968;105.834;2023-09-07T14:48:55;71.17;;;41.27;;
22606;SDS011;11470;20.968;105.834;2023-09-07T14:54:01;67.97;;;43.92;;
22606;SDS011;11470;20.968;105.834;2023-09-07T14:59:06;71.63;;;46.50;;
22606;SDS011;11470;20.968;105.834;2023-09-07T15:04:11;66.25;;;51.50;;
22606;SDS011;11470;20.968;105.834;2023-09-07T15:09:17;71.20;;;49.05;;
22606;SDS011;11470;20.968;105.834;2023-09-07T15:14:22;68.30;;;49.97;;
22606;SDS011;11470;20.968;105.834;2023-09-07T15:19:27;67.90;;;48.33;;
22606;SDS011;11470;20.968;105.834;2023-09-07T15:24:34;60.97;;;43.65;;
22606;SDS011;11470;20.968;105.834;2023-09-07T15:34:44;81.33;;;60.40;;
22606;SDS011;11470;20.968;105.834;2023-09-07T15:39:49;81.50;;;56.53;;
22606;SDS011;11470;20.968;105.834;2023-09-07T15:44:54;72.78;;;55.03;;
22606;SDS011;11470;20.968;105.834;2023-09-07T15:49:58;76.67;;;57.00;;
22606;SDS011;11470;20.968;105.834;2023-09-07T15:55:04;66.40;;;51.53;;
22606;SDS011;11470;20.968;105.834;2023-09-07T16:00:09;63.30;;;47.65;;
22606;SDS011;11470;20.968;105.834;2023-09-07T16:05:16;61.50;;;45.65;;
22606;SDS011;11470;20.968;105.834;2023-09-07T16:10:22;65.22;;;51.22;;
22606;SDS011;11470;20.968;105.834;2023-09-07T16:15:27;74.77;;;53.63;;
22606;SDS011;11470;20.968;105.834;2023-09-07T16:20:32;70.30;;;53.22;;
22606;SDS011;11470;20.968;105.834;2023-09-07T16:25:37;72.72;;;56.83;;
22606;SDS011;11470;20.968;105.834;2023-09-07T16:30:42;75.77;;;54.70;;
22606;SDS011;11470;20.968;105.834;2023-09-07T16:35:47;75.80;;;56.57;;
22606;SDS011;11470;20.968;105.834;2023-09-07T16:40:51;78.37;;;57.13;;
22606;SDS011;11470;20.968;105.834;2023-09-07T16:46:05;72.17;;;53.30;;
22606;SDS011;11470;20.968;105.834;2023-09-07T16:51:10;80.32;;;59.35;;
22606;SDS011;11470;20.968;105.834;2023-09-07T16:56:15;92.10;;;65.13;;
22606;SDS011;11470;20.968;105.834;2023-09-07T17:06:25;74.20;;;54.38;;
22606;SDS011;11470;20.968;105.834;2023-09-07T17:11:29;60.17;;;44.93;;
22606;SDS011;11470;20.968;105.834;2023-09-07T17:16:36;71.20;;;50.40;;
22606;SDS011;11470;20.968;105.834;2023-09-07T17:21:41;46.15;;;32.08;;
22606;SDS011;11470;20.968;105.834;2023-09-07T17:26:47;38.03;;;21.30;;
22606;SDS011;11470;20.968;105.834;2023-09-07T17:36:56;35.15;;;21.35;;
22606;SDS011;11470;20.968;105.834;2023-09-07T17:42:01;35.70;;;24.15;;
22606;SDS011;11470;20.968;105.834;2023-09-07T17:47:06;28.17;;;15.20;;
22606;SDS011;11470;20.968;105.834;2023-09-07T17:52:11;32.80;;;19.83;;
22606;SDS011;11470;20.968;105.834;2023-09-07T17:57:16;30.60;;;17.00;;
22606;SDS011;11470;20.968;105.834;2023-09-07T18:02:21;30.57;;;19.40;;
22606;SDS011;11470;20.968;105.834;2023-09-07T18:07:28;24.58;;;16.67;;
22606;SDS011;11470;20.968;105.834;2023-09-07T18:12:33;26.42;;;15.20;;
22606;SDS011;11470;20.968;105.834;2023-09-07T18:17:38;21.67;;;17.70;;
22606;SDS011;11470;20.968;105.834;2023-09-07T18:27:48;21.00;;;16.63;;
22606;SDS011;11470;20.968;105.834;2023-09-07T18:32:53;21.70;;;16.10;;
22606;SDS011;11470;20.968;105.834;2023-09-07T18:37:58;18.13;;;15.60;;
22606;SDS011;11470;20.968;105.834;2023-09-07T18:43:02;18.53;;;14.50;;
22606;SDS011;11470;20.968;105.834;2023-09-07T18:48:07;21.13;;;17.10;;
22606;SDS011;11470;20.968;105.834;2023-09-07T18:53:12;22.42;;;15.32;;
22606;SDS011;11470;20.968;105.834;2023-09-07T18:58:17;19.85;;;15.05;;
22606;SDS011;11470;20.968;105.834;2023-09-07T19:03:22;20.30;;;16.57;;
22606;SDS011;11470;20.968;105.834;2023-09-07T19:08:27;20.35;;;15.90;;
22606;SDS011;11470;20.968;105.834;2023-09-07T19:13:33;20.20;;;15.90;;
22606;SDS011;11470;20.968;105.834;2023-09-07T19:18:37;20.70;;;12.87;;
22606;SDS011;11470;20.968;105.834;2023-09-07T19:23:43;16.70;;;12.27;;
22606;SDS011;11470;20.968;105.834;2023-09-07T19:28:48;22.17;;;17.20;;
22606;SDS011;11470;20.968;105.834;2023-09-07T19:33:53;22.83;;;16.73;;
22606;SDS011;11470;20.968;105.834;2023-09-07T19:38:59;20.40;;;16.20;;
22606;SDS011;11470;20.968;105.834;2023-09-07T19:49:10;18.23;;;15.23;;
22606;SDS011;11470;20.968;105.834;2023-09-07T19:54:16;16.00;;;12.95;;
22606;SDS011;11470;20.968;105.834;2023-09-07T19:59:21;17.60;;;15.00;;
22606;SDS011;11470;20.968;105.834;2023-09-07T20:04:25;16.37;;;14.60;;
22606;SDS011;11470;20.968;105.834;2023-09-07T20:09:31;18.13;;;15.52;;
22606;SDS011;11470;20.968;105.834;2023-09-07T20:14:35;21.90;;;16.47;;
22606;SDS011;11470;20.968;105.834;2023-09-07T20:19:41;19.00;;;15.57;;
22606;SDS011;11470;20.968;105.834;2023-09-07T20:24:47;18.73;;;15.65;;
22606;SDS011;11470;20.968;105.834;2023-09-07T20:29:51;19.50;;;14.03;;
22606;SDS011;11470;20.968;105.834;2023-09-07T20:34:56;18.10;;;12.20;;
22606;SDS011;11470;20.968;105.834;2023-09-07T20:40:01;12.73;;;9.13;;
22606;SDS011;11470;20.968;105.834;2023-09-07T20:45:09;18.98;;;12.73;;
22606;SDS011;11470;20.968;105.834;2023-09-07T20:50:14;17.80;;;13.00;;
22606;SDS011;11470;20.968;105.834;2023-09-07T20:55:18;9.13;;;7.10;;
22606;SDS011;11470;20.968;105.834;2023-09-07T21:00:23;12.23;;;6.57;;
22606;SDS011;11470;20.968;105.834;2023-09-07T21:05:28;12.40;;;9.20;;
22606;SDS011;11470;20.968;105.834;2023-09-07T21:10:33;13.13;;;10.33;;
22606;SDS011;11470;20.968;105.834;2023-09-07T21:15:38;13.70;;;10.13;;
22606;SDS011;11470;20.968;105.834;2023-09-07T21:20:43;11.13;;;8.50;;
22606;SDS011;11470;20.968;105.834;2023-09-07T21:25:49;11.32;;;8.65;;
22606;SDS011;11470;20.968;105.834;2023-09-07T21:30:54;12.57;;;9.67;;
22606;SDS011;11470;20.968;105.834;2023-09-07T21:35:59;11.03;;;8.87;;
22606;SDS011;11470;20.968;105.834;2023-09-07T21:41:04;10.45;;;8.45;;
22606;SDS011;11470;20.968;105.834;2023-09-07T21:46:10;10.45;;;8.65;;
22606;SDS011;11470;20.968;105.834;2023-09-07T21:51:15;12.50;;;9.32;;
22606;SDS011;11470;20.968;105.834;2023-09-07T21:56:20;16.10;;;11.80;;
22606;SDS011;11470;20.968;105.834;2023-09-07T22:01:25;17.13;;;11.53;;
22606;SDS011;11470;20.968;105.834;2023-09-07T22:06:30;16.40;;;12.15;;
22606;SDS011;11470;20.968;105.834;2023-09-07T22:11:34;18.60;;;12.90;;
22606;SDS011;11470;20.968;105.834;2023-09-07T22:16:39;19.47;;;13.70;;
22606;SDS011;11470;20.968;105.834;2023-09-07T22:21:44;21.08;;;12.95;;
22606;SDS011;11470;20.968;105.834;2023-09-07T22:26:49;21.30;;;14.67;;
22606;SDS011;11470;20.968;105.834;2023-09-07T22:31:59;17.05;;;13.50;;
22606;SDS011;11470;20.968;105.834;2023-09-07T22:42:09;18.58;;;13.15;;
22606;SDS011;11470;20.968;105.834;2023-09-07T22:47:14;16.90;;;12.80;;
22606;SDS011;11470;20.968;105.834;2023-09-07T22:52:20;16.52;;;12.27;;
22606;SDS011;11470;20.968;105.834;2023-09-07T22:57:24;18.10;;;12.80;;
22606;SDS011;11470;20.968;105.834;2023-09-07T23:02:29;20.70;;;13.30;;
22606;SDS011;11470;20.968;105.834;2023-09-07T23:07:34;20.80;;;12.43;;
22606;SDS011;11470;20.968;105.834;2023-09-07T23:12:39;19.00;;;13.83;;
22606;SDS011;11470;20.968;105.834;2023-09-07T23:17:46;16.93;;;12.57;;
22606;SDS011;11470;20.968;105.834;2023-09-07T23:22:51;19.83;;;14.07;;
22606;SDS011;11470;20.968;105.834;2023-09-07T23:27:56;20.93;;;13.63;;
22606;SDS011;11470;20.968;105.834;2023-09-07T23:33:31;18.83;;;13.10;;
22606;SDS011;11470;20.968;105.834;2023-09-07T23:38:37;18.48;;;13.43;;
22606;SDS011;11470;20.968;105.834;2023-09-07T23:43:42;22.40;;;13.67;;
22606;SDS011;11470;20.968;105.834;2023-09-07T23:48:47;16.93;;;11.00;;
22606;SDS011;11470;20.968;105.834;2023-09-07T23:53:52;15.03;;;10.27;;
22606;SDS011;11470;20.968;105.834;2023-09-07T23:58:56;12.05;;;7.18;;
